Time;durP1;ratioP1;P1;durP2;ratioP2;P2;SDS_P1;SDS_P2;PMS_P1;PMS_P2;Temp;Humidity;BMP_temperature;BMP_pressure;BME280_temperature;BME280_humidity;BME280_pressure;Samples;Min_cycle;Max_cycle;Signal;HPM_P1;HPM_P2
2023/09/03 00:00:50;;;;;;;19.93;17.97;;;17.70;99.90;;;;;;6110290;23;20590;-76
2023/09/03 00:03:16;;;;;;;20.50;18.33;;;17.60;99.90;;;;;;6108621;23;20408;-76
2023/09/03 00:05:49;;;;;;;20.13;17.10;;;17.60;99.90;;;;;;6111055;23;20165;-77
2023/09/03 00:08:15;;;;;;;17.73;15.90;;;17.60;99.90;;;;;;6115878;23;20202;-75
2023/09/03 00:10:41;;;;;;;15.57;13.97;;;17.50;99.90;;;;;;6108366;23;20411;-76
2023/09/03 00:13:07;;;;;;;16.00;14.30;;;17.40;99.90;;;;;;6084979;23;20363;-76
2023/09/03 00:15:33;;;;;;;15.77;14.17;;;17.40;99.90;;;;;;6084243;23;20137;-74
2023/09/03 00:17:59;;;;;;;17.33;14.93;;;17.40;99.90;;;;;;6083792;23;20372;-75
2023/09/03 00:20:25;;;;;;;16.67;14.90;;;17.30;99.90;;;;;;6112361;23;20173;-75
2023/09/03 00:22:50;;;;;;;18.57;16.57;;;17.30;99.90;;;;;;6110479;23;20203;-74
2023/09/03 00:25:16;;;;;;;16.77;15.07;;;17.20;99.90;;;;;;6107229;23;20361;-74
2023/09/03 00:27:42;;;;;;;20.37;17.03;;;17.20;99.90;;;;;;6111093;23;20166;-76
2023/09/03 00:30:10;;;;;;;16.90;15.27;;;17.20;99.90;;;;;;6089218;23;20184;-78
2023/09/03 00:32:36;;;;;;;19.27;17.27;;;17.20;99.90;;;;;;6066045;23;20144;-75
2023/09/03 00:35:01;;;;;;;19.53;17.40;;;17.10;99.90;;;;;;6088523;23;20379;-76
2023/09/03 00:37:27;;;;;;;22.27;18.20;;;17.10;99.90;;;;;;6112483;23;20142;-75
2023/09/03 00:39:53;;;;;;;24.27;19.87;;;17.10;99.90;;;;;;6086852;23;20234;-74
2023/09/03 00:42:18;;;;;;;24.93;20.77;;;17.10;99.90;;;;;;6110251;23;20181;-74
2023/09/03 00:44:44;;;;;;;27.83;21.30;;;17.00;99.90;;;;;;6111403;23;20161;-75
2023/09/03 00:47:10;;;;;;;25.90;21.67;;;17.00;99.90;;;;;;6086987;23;20186;-76
2023/09/03 00:49:41;;;;;;;20.50;18.00;;;17.00;99.90;;;;;;6111880;23;20129;-75
2023/09/03 00:52:07;;;;;;;26.17;21.07;;;16.90;99.90;;;;;;6112702;23;20366;-76
2023/09/03 00:54:33;;;;;;;26.50;21.60;;;16.90;99.90;;;;;;6109619;23;20361;-74
2023/09/03 00:56:59;;;;;;;22.10;19.17;;;16.90;99.90;;;;;;6108853;23;20198;-75
2023/09/03 00:59:29;;;;;;;31.07;24.67;;;16.80;99.90;;;;;;6083753;23;20159;-76
2023/09/03 01:01:55;;;;;;;24.77;21.43;;;16.80;99.90;;;;;;6110024;23;20143;-76
2023/09/03 01:04:21;;;;;;;27.27;19.00;;;16.70;99.90;;;;;;6083801;23;20447;-74
2023/09/03 01:06:48;;;;;;;20.63;18.07;;;16.70;99.90;;;;;;6110407;23;20144;-74
2023/09/03 01:09:17;;;;;;;25.17;20.90;;;16.60;99.90;;;;;;6107811;23;20377;-73
2023/09/03 01:12:02;;;;;;;26.03;22.53;;;16.60;99.90;;;;;;6108621;23;20438;-77
2023/09/03 01:14:36;;;;;;;26.50;22.50;;;16.60;99.90;;;;;;6107675;23;20382;-74
2023/09/03 01:17:22;;;;;;;30.07;22.50;;;16.60;99.90;;;;;;6108909;23;20357;-75
2023/09/03 01:19:48;;;;;;;27.80;22.23;;;16.60;99.90;;;;;;6082782;23;20400;-74
2023/09/03 01:22:36;;;;;;;23.00;19.97;;;16.60;99.90;;;;;;6082628;23;20380;-74
2023/09/03 01:25:26;;;;;;;35.70;28.60;;;16.60;99.90;;;;;;6060813;23;20657;-74
2023/09/03 01:28:21;;;;;;;34.57;26.90;;;16.60;99.90;;;;;;6110526;23;20368;-73
2023/09/03 01:30:50;;;;;;;33.93;24.57;;;16.60;99.90;;;;;;6111584;23;20420;-74
2023/09/03 01:33:17;;;;;;;27.47;20.97;;;16.60;99.90;;;;;;6083575;23;20467;-73
2023/09/03 01:35:44;;;;;;;29.57;24.33;;;16.60;99.90;;;;;;6063239;23;20372;-75
2023/09/03 01:38:09;;;;;;;28.97;23.43;;;16.60;99.90;;;;;;6109954;23;20650;-74
2023/09/03 01:40:35;;;;;;;29.07;22.97;;;16.50;99.90;;;;;;6085432;23;20408;-74
2023/09/03 01:43:01;;;;;;;27.47;21.37;;;16.50;99.90;;;;;;6109338;23;20147;-73
2023/09/03 01:45:53;;;;;;;26.47;19.60;;;16.50;99.90;;;;;;6111070;23;20536;-74
2023/09/03 01:48:41;;;;;;;24.70;19.10;;;16.50;99.90;;;;;;6109736;23;20231;-73
2023/09/03 01:51:22;;;;;;;26.30;19.13;;;16.40;99.90;;;;;;6089607;23;20408;-73
2023/09/03 01:53:58;;;;;;;25.07;20.20;;;16.40;99.90;;;;;;6109386;23;20375;-77
2023/09/03 01:56:25;;;;;;;30.83;21.53;;;16.40;99.90;;;;;;6109014;23;20675;-74
2023/09/03 01:58:53;;;;;;;33.73;25.60;;;16.40;99.90;;;;;;6085319;23;20390;-72
2023/09/03 02:01:21;;;;;;;32.70;25.43;;;16.40;99.90;;;;;;6110442;23;20408;-75
2023/09/03 02:03:47;;;;;;;39.33;29.17;;;16.40;99.90;;;;;;6083882;23;20437;-74
2023/09/03 02:06:13;;;;;;;34.33;26.17;;;16.40;99.90;;;;;;6113010;23;20353;-73
2023/09/03 02:08:38;;;;;;;31.00;26.10;;;16.40;99.90;;;;;;6061775;23;20377;-73
2023/09/03 02:11:04;;;;;;;33.50;26.50;;;16.40;99.90;;;;;;6107264;23;20165;-72
2023/09/03 02:13:30;;;;;;;36.97;28.10;;;16.40;99.90;;;;;;6060018;23;20155;-73
2023/09/03 02:15:58;;;;;;;31.20;24.00;;;16.30;99.90;;;;;;6082572;23;20148;-72
2023/09/03 02:18:24;;;;;;;29.87;21.13;;;16.30;99.90;;;;;;6082974;23;20366;-74
2023/09/03 02:20:49;;;;;;;26.20;20.80;;;16.30;99.90;;;;;;6108089;23;20428;-72
2023/09/03 02:23:15;;;;;;;31.17;22.60;;;16.30;99.90;;;;;;6060668;23;20150;-72
2023/09/03 02:25:41;;;;;;;25.77;20.90;;;16.20;99.90;;;;;;6108009;23;20192;-74
2023/09/03 02:28:09;;;;;;;27.50;20.23;;;16.20;99.90;;;;;;6083791;23;20227;-73
2023/09/03 02:30:36;;;;;;;27.60;20.70;;;16.20;99.90;;;;;;6085734;23;20204;-76
2023/09/03 02:33:02;;;;;;;26.50;20.37;;;16.30;99.90;;;;;;6089599;23;20384;-74
2023/09/03 02:35:27;;;;;;;30.60;25.40;;;16.20;99.90;;;;;;6108210;23;20159;-72
2023/09/03 02:37:53;;;;;;;32.33;24.27;;;16.20;99.90;;;;;;6106344;23;20401;-72
2023/09/03 02:40:20;;;;;;;35.63;24.23;;;16.20;99.90;;;;;;6082766;23;20315;-73
2023/09/03 02:42:45;;;;;;;34.80;24.87;;;16.20;99.90;;;;;;6109786;23;20365;-73
2023/09/03 02:45:11;;;;;;;26.60;20.80;;;16.20;99.90;;;;;;6086484;23;20180;-72
2023/09/03 02:47:36;;;;;;;29.83;22.77;;;16.20;99.90;;;;;;6108403;23;20282;-73
2023/09/03 02:50:02;;;;;;;26.13;20.97;;;16.10;99.90;;;;;;6058630;23;20160;-75
2023/09/03 02:52:29;;;;;;;29.10;22.90;;;16.10;99.90;;;;;;6105931;23;20144;-72
2023/09/03 02:54:54;;;;;;;40.60;28.63;;;16.10;99.90;;;;;;6083704;23;20439;-74
2023/09/03 02:57:20;;;;;;;42.30;30.13;;;16.10;99.90;;;;;;6083769;23;20156;-71
2023/09/03 02:59:45;;;;;;;33.83;25.07;;;16.10;99.90;;;;;;6108735;23;20168;-73
2023/09/03 03:02:12;;;;;;;38.50;28.20;;;16.00;99.90;;;;;;6082826;23;20541;-73
2023/09/03 03:04:37;;;;;;;42.13;29.13;;;16.00;99.90;;;;;;6107483;23;20440;-73
2023/09/03 03:07:03;;;;;;;40.73;27.57;;;16.00;99.90;;;;;;6082307;23;20141;-73
2023/09/03 03:09:29;;;;;;;37.17;25.23;;;16.00;99.90;;;;;;6105647;23;20137;-73
2023/09/03 03:11:54;;;;;;;36.47;25.50;;;16.00;99.90;;;;;;6105949;23;20137;-72
2023/09/03 03:14:20;;;;;;;32.97;25.03;;;15.90;99.90;;;;;;6083349;23;20153;-75
2023/09/03 03:16:46;;;;;;;28.60;22.50;;;15.90;99.90;;;;;;6082933;23;20211;-75
2023/09/03 03:19:14;;;;;;;31.60;23.37;;;15.90;99.90;;;;;;6083979;23;20466;-73
2023/09/03 03:21:40;;;;;;;35.40;24.10;;;15.90;99.90;;;;;;6058642;23;20408;-72
2023/09/03 03:24:07;;;;;;;37.57;26.77;;;15.90;99.90;;;;;;6058178;23;20478;-74
2023/09/03 03:26:35;;;;;;;35.10;24.37;;;15.90;99.90;;;;;;6081460;23;20155;-73
2023/09/03 03:29:03;;;;;;;30.90;24.40;;;15.90;99.90;;;;;;6080452;23;20376;-73
2023/09/03 03:31:32;;;;;;;45.40;31.23;;;15.90;99.90;;;;;;6081366;23;20520;-72
2023/09/03 03:33:59;;;;;;;52.30;36.40;;;15.90;99.90;;;;;;6088761;23;20386;-74
2023/09/03 03:36:28;;;;;;;52.23;34.83;;;15.90;99.90;;;;;;6082250;23;20412;-72
2023/09/03 03:38:53;;;;;;;50.40;33.27;;;15.90;99.90;;;;;;6108401;23;20503;-74
2023/09/03 03:41:20;;;;;;;51.03;34.53;;;15.80;99.90;;;;;;6081272;23;20404;-73
2023/09/03 03:43:50;;;;;;;45.03;31.30;;;15.80;99.90;;;;;;6105570;23;20199;-72
2023/09/03 03:46:19;;;;;;;41.70;28.60;;;15.80;99.90;;;;;;6105911;23;20361;-71
2023/09/03 03:48:48;;;;;;;36.83;26.67;;;15.80;99.90;;;;;;6103806;23;20349;-73
2023/09/03 03:51:16;;;;;;;33.90;24.03;;;15.70;99.90;;;;;;6103114;23;20430;-72
2023/09/03 03:53:42;;;;;;;36.73;24.17;;;15.70;99.90;;;;;;6079717;23;20376;-72
2023/09/03 03:56:10;;;;;;;43.70;28.90;;;15.60;99.90;;;;;;6101210;23;20440;-72
2023/09/03 03:58:37;;;;;;;38.53;27.63;;;15.60;99.90;;;;;;6099248;23;20356;-72
2023/09/03 04:01:18;;;;;;;32.50;24.93;;;15.60;99.90;;;;;;6099992;23;20404;-73
2023/09/03 04:03:48;;;;;;;33.00;23.27;;;15.50;99.90;;;;;;6103045;23;20436;-73
2023/09/03 04:06:14;;;;;;;37.33;23.87;;;15.50;99.90;;;;;;6105599;23;20376;-72
2023/09/03 04:08:40;;;;;;;32.77;24.10;;;15.50;99.90;;;;;;6078757;23;20456;-73
2023/09/03 04:11:08;;;;;;;33.50;22.77;;;15.50;99.90;;;;;;6104728;23;20613;-72
2023/09/03 04:13:35;;;;;;;38.93;24.70;;;15.50;99.90;;;;;;6105741;23;20377;-74
2023/09/03 04:16:05;;;;;;;40.00;26.20;;;15.50;99.90;;;;;;6080815;23;20383;-73
2023/09/03 04:18:31;;;;;;;36.40;24.97;;;15.50;99.90;;;;;;6080745;23;20388;-72
2023/09/03 04:20:58;;;;;;;31.53;22.13;;;15.50;99.90;;;;;;6105948;23;20392;-72
2023/09/03 04:23:25;;;;;;;31.43;20.83;;;15.50;99.90;;;;;;6105275;23;20141;-71
2023/09/03 04:25:52;;;;;;;31.07;20.27;;;15.50;99.90;;;;;;6078826;23;20400;-73
2023/09/03 04:28:21;;;;;;;30.77;20.77;;;15.50;99.90;;;;;;6101493;23;20377;-73
2023/09/03 04:30:51;;;;;;;29.93;21.70;;;15.50;99.90;;;;;;6078747;23;20389;-74
2023/09/03 04:33:17;;;;;;;29.80;20.57;;;15.50;99.90;;;;;;6102873;23;20471;-73
2023/09/03 04:35:42;;;;;;;28.53;20.73;;;15.50;99.90;;;;;;6104649;23;20365;-73
2023/09/03 04:38:08;;;;;;;39.57;23.97;;;15.50;99.90;;;;;;6103201;23;20414;-72
2023/09/03 04:40:37;;;;;;;45.50;30.80;;;15.50;99.90;;;;;;6104084;23;20176;-73
2023/09/03 04:43:05;;;;;;;41.57;27.57;;;15.50;99.90;;;;;;6102769;23;20164;-73
2023/09/03 04:45:32;;;;;;;47.33;29.60;;;15.50;99.90;;;;;;6082711;23;20683;-72
2023/09/03 04:47:59;;;;;;;45.40;29.50;;;15.50;99.90;;;;;;6079293;23;20781;-73
2023/09/03 04:50:25;;;;;;;41.00;26.33;;;15.50;99.90;;;;;;6080078;23;20388;-72
2023/09/03 04:52:55;;;;;;;32.17;24.73;;;15.40;99.90;;;;;;6083641;23;20809;-72
2023/09/03 04:55:20;;;;;;;31.30;21.33;;;15.40;99.90;;;;;;6079104;23;20641;-72
2023/09/03 04:57:48;;;;;;;48.87;31.97;;;15.40;99.90;;;;;;6109971;23;20381;-74
2023/09/03 05:00:13;;;;;;;45.67;30.60;;;15.30;99.90;;;;;;6088789;23;20428;-72
2023/09/03 05:02:39;;;;;;;61.80;39.50;;;15.30;99.90;;;;;;6115568;23;20151;-72
2023/09/03 05:05:05;;;;;;;52.07;34.23;;;15.30;99.90;;;;;;6090229;23;20192;-72
2023/09/03 05:07:31;;;;;;;41.97;30.93;;;15.40;99.90;;;;;;6086803;23;20145;-73
2023/09/03 05:09:57;;;;;;;39.47;27.13;;;15.40;99.90;;;;;;6106525;23;20388;-73
2023/09/03 05:12:24;;;;;;;65.00;37.20;;;15.40;99.90;;;;;;6080542;23;20630;-71
2023/09/03 05:14:50;;;;;;;56.50;34.90;;;15.40;99.90;;;;;;6081601;23;20428;-71
2023/09/03 05:17:16;;;;;;;53.20;33.13;;;15.40;99.90;;;;;;6088883;23;20144;-72
2023/09/03 05:19:44;;;;;;;60.97;37.67;;;15.40;99.90;;;;;;6104356;23;20408;-72
2023/09/03 05:22:10;;;;;;;66.77;39.67;;;15.40;99.90;;;;;;6105351;23;20443;-73
2023/09/03 05:24:35;;;;;;;63.70;37.30;;;15.50;99.90;;;;;;6081205;23;20936;-72
2023/09/03 05:27:01;;;;;;;53.00;36.07;;;15.50;99.90;;;;;;6106415;23;20171;-73
2023/09/03 05:29:27;;;;;;;56.73;36.60;;;15.50;99.90;;;;;;6107679;23;20137;-72
2023/09/03 05:31:53;;;;;;;57.57;37.27;;;15.50;99.90;;;;;;6058718;23;20145;-72
2023/09/03 05:34:18;;;;;;;58.43;34.97;;;15.60;99.90;;;;;;6081359;23;20164;-73
2023/09/03 05:36:44;;;;;;;50.13;32.47;;;15.60;99.90;;;;;;6106585;23;20457;-72
2023/09/03 05:39:10;;;;;;;55.47;34.67;;;15.70;99.90;;;;;;6082280;23;20802;-71
2023/09/03 05:41:36;;;;;;;49.50;33.20;;;15.70;99.90;;;;;;6105608;23;20183;-73
2023/09/03 05:44:06;;;;;;;41.70;29.93;;;15.80;99.90;;;;;;6081585;23;20243;-72
2023/09/03 05:46:32;;;;;;;43.50;29.67;;;15.80;99.90;;;;;;6105357;23;20149;-72
2023/09/03 05:48:58;;;;;;;39.73;26.50;;;15.80;99.90;;;;;;6079790;23;20373;-72
2023/09/03 05:51:24;;;;;;;36.77;24.37;;;15.90;99.90;;;;;;6080912;23;20384;-73
2023/09/03 05:53:50;;;;;;;28.20;22.03;;;15.90;99.90;;;;;;6080416;23;20380;-72
2023/09/03 05:56:19;;;;;;;37.20;27.03;;;16.00;99.90;;;;;;6080730;23;20149;-73
2023/09/03 05:58:46;;;;;;;39.33;27.87;;;16.00;99.90;;;;;;6082084;23;20452;-73
2023/09/03 06:01:12;;;;;;;35.10;26.43;;;16.10;99.90;;;;;;6107772;23;20471;-72
2023/09/03 06:03:40;;;;;;;28.73;22.20;;;16.20;99.90;;;;;;6104800;23;20188;-73
2023/09/03 06:06:09;;;;;;;27.13;20.77;;;16.20;99.90;;;;;;6105267;23;20392;-72
2023/09/03 06:08:36;;;;;;;28.20;20.47;;;16.20;99.90;;;;;;6104781;23;20391;-71
2023/09/03 06:11:03;;;;;;;20.30;17.00;;;16.30;99.90;;;;;;6104864;23;20810;-73
2023/09/03 06:13:30;;;;;;;23.47;18.50;;;16.30;99.90;;;;;;6107874;23;20372;-73
2023/09/03 06:15:56;;;;;;;29.03;22.90;;;16.40;99.90;;;;;;6059512;23;20395;-72
2023/09/03 06:18:22;;;;;;;22.97;20.00;;;16.50;99.90;;;;;;6083275;23;20380;-75
2023/09/03 06:20:48;;;;;;;18.50;15.87;;;16.50;99.90;;;;;;6107355;23;20389;-71
2023/09/03 06:23:17;;;;;;;19.27;16.13;;;16.60;99.90;;;;;;6107706;23;20376;-73
2023/09/03 06:25:43;;;;;;;20.23;17.97;;;16.80;99.90;;;;;;6107440;23;20837;-73
2023/09/03 06:28:09;;;;;;;22.57;17.77;;;16.90;99.90;;;;;;6109266;23;20374;-72
2023/09/03 06:30:34;;;;;;;21.20;18.43;;;17.00;99.90;;;;;;6104933;23;20168;-71
2023/09/03 06:33:00;;;;;;;26.77;22.23;;;17.10;99.90;;;;;;6107189;23;20146;-72
2023/09/03 06:35:26;;;;;;;25.30;19.67;;;17.20;99.90;;;;;;6107688;23;20181;-75
2023/09/03 06:37:52;;;;;;;20.50;18.30;;;17.30;99.90;;;;;;6109367;23;20133;-74
2023/09/03 06:40:18;;;;;;;30.40;23.90;;;17.40;99.90;;;;;;6080495;23;20475;-73
2023/09/03 06:42:44;;;;;;;24.80;21.40;;;17.40;99.90;;;;;;6056920;23;20376;-73
2023/09/03 06:45:10;;;;;;;22.33;19.90;;;17.40;99.90;;;;;;6059102;23;20178;-74
2023/09/03 06:47:38;;;;;;;29.30;24.30;;;17.50;99.90;;;;;;6105945;23;20142;-74
2023/09/03 06:50:05;;;;;;;24.63;20.00;;;17.50;99.90;;;;;;6110016;23;20643;-74
2023/09/03 06:52:31;;;;;;;18.27;16.03;;;17.40;99.90;;;;;;6083657;23;20390;-75
2023/09/03 06:54:56;;;;;;;21.70;17.20;;;17.50;99.90;;;;;;6107152;23;20365;-73
2023/09/03 06:57:24;;;;;;;18.20;15.43;;;17.50;99.90;;;;;;6109028;23;20517;-75
2023/09/03 06:59:49;;;;;;;18.20;15.03;;;17.60;99.90;;;;;;6088079;23;20176;-74
2023/09/03 07:02:15;;;;;;;18.37;15.73;;;17.60;99.90;;;;;;6107829;23;20372;-73
2023/09/03 07:04:41;;;;;;;28.07;22.13;;;17.70;99.90;;;;;;6081798;23;20188;-73
2023/09/03 07:07:06;;;;;;;26.20;21.53;;;17.80;99.90;;;;;;6107095;23;20167;-74
2023/09/03 07:09:33;;;;;;;21.00;18.80;;;17.80;99.90;;;;;;6082282;23;20146;-72
2023/09/03 07:11:59;;;;;;;22.30;19.93;;;17.90;99.90;;;;;;6107226;23;20145;-73
2023/09/03 07:14:25;;;;;;;23.53;19.10;;;18.00;99.90;;;;;;6109466;23;20364;-74
2023/09/03 07:16:51;;;;;;;21.37;19.17;;;18.10;99.90;;;;;;6085181;23;20383;-73
2023/09/03 07:19:17;;;;;;;18.53;16.67;;;18.20;99.90;;;;;;6109266;23;20455;-73
2023/09/03 07:21:43;;;;;;;21.30;18.13;;;18.40;99.90;;;;;;6109074;23;20657;-77
2023/09/03 07:24:08;;;;;;;24.83;22.23;;;18.50;99.90;;;;;;6085334;23;20411;-74
2023/09/03 07:26:34;;;;;;;22.00;19.60;;;18.50;99.90;;;;;;6111494;23;20137;-74
2023/09/03 07:28:59;;;;;;;20.40;18.00;;;18.60;99.90;;;;;;6108898;23;20145;-73
2023/09/03 07:31:25;;;;;;;23.80;20.83;;;18.70;99.90;;;;;;6083042;23;20199;-74
2023/09/03 07:33:51;;;;;;;19.90;16.57;;;18.80;99.90;;;;;;6106613;23;20165;-73
2023/09/03 07:36:16;;;;;;;20.80;17.10;;;18.80;99.90;;;;;;6083358;23;20170;-76
2023/09/03 07:38:42;;;;;;;21.83;18.70;;;18.80;99.90;;;;;;6107417;23;20141;-73
2023/09/03 07:41:08;;;;;;;20.90;18.57;;;18.80;99.90;;;;;;6079463;23;20175;-73
2023/09/03 07:43:34;;;;;;;20.50;18.10;;;18.90;99.90;;;;;;6106225;23;20132;-73
2023/09/03 07:46:00;;;;;;;20.80;18.60;;;18.90;99.90;;;;;;6109631;23;20167;-75
2023/09/03 07:48:26;;;;;;;21.23;19.00;;;19.00;99.90;;;;;;6060813;23;20388;-78
2023/09/03 07:50:52;;;;;;;20.37;18.13;;;19.00;99.90;;;;;;6108621;23;20172;-72
2023/09/03 07:53:19;;;;;;;20.60;16.87;;;19.10;99.90;;;;;;6111044;23;20140;-73
2023/09/03 07:55:44;;;;;;;22.13;19.77;;;19.10;99.90;;;;;;6083339;23;20376;-72
2023/09/03 07:58:10;;;;;;;20.60;18.57;;;19.10;99.90;;;;;;6109145;23;20407;-74
2023/09/03 08:00:36;;;;;;;20.33;17.60;;;19.10;99.90;;;;;;6062411;23;20167;-73
2023/09/03 08:03:02;;;;;;;19.93;17.83;;;19.20;99.90;;;;;;6109916;23;20411;-74
2023/09/03 08:05:28;;;;;;;23.67;19.10;;;19.10;99.90;;;;;;6108738;23;20196;-75
2023/09/03 08:07:53;;;;;;;21.13;18.87;;;19.10;99.90;;;;;;6083628;23;20373;-74
2023/09/03 08:10:19;;;;;;;20.17;18.00;;;19.00;99.90;;;;;;6086082;23;20434;-75
2023/09/03 08:12:45;;;;;;;25.77;21.07;;;18.90;99.90;;;;;;6061961;23;20488;-75
2023/09/03 08:15:11;;;;;;;18.90;16.47;;;18.80;99.90;;;;;;6060285;23;20149;-71
2023/09/03 08:17:36;;;;;;;17.17;15.13;;;18.90;99.90;;;;;;6059528;23;20155;-74
2023/09/03 08:20:03;;;;;;;16.53;14.33;;;19.00;99.90;;;;;;6083244;23;20224;-74
2023/09/03 08:22:29;;;;;;;16.30;13.50;;;19.10;99.90;;;;;;6107857;23;20148;-73
2023/09/03 08:24:55;;;;;;;20.13;16.47;;;19.20;99.90;;;;;;6084271;23;20415;-73
2023/09/03 08:27:20;;;;;;;17.80;15.50;;;19.30;99.90;;;;;;6109806;23;20144;-73
2023/09/03 08:29:46;;;;;;;17.80;15.13;;;19.30;99.90;;;;;;6108344;23;20164;-75
2023/09/03 08:32:12;;;;;;;21.37;17.43;;;19.50;99.90;;;;;;6109593;23;20137;-74
2023/09/03 08:34:37;;;;;;;18.80;16.70;;;19.50;99.90;;;;;;6111326;23;20392;-73
2023/09/03 08:37:03;;;;;;;22.50;17.90;;;19.50;99.90;;;;;;6086174;23;20155;-72
2023/09/03 08:39:29;;;;;;;21.53;19.17;;;19.60;99.90;;;;;;6086480;23;20164;-74
2023/09/03 08:41:57;;;;;;;21.20;18.83;;;19.50;99.90;;;;;;6113097;23;20376;-74
2023/09/03 08:44:28;;;;;;;21.03;18.43;;;19.50;99.90;;;;;;6110883;23;20199;-75
2023/09/03 08:46:59;;;;;;;20.30;16.37;;;19.70;99.90;;;;;;6085923;23;20448;-74
2023/09/03 08:49:29;;;;;;;15.83;14.13;;;19.80;99.90;;;;;;6087953;23;20375;-74
2023/09/03 08:51:59;;;;;;;17.10;15.00;;;19.90;99.90;;;;;;6113672;23;20357;-75
2023/09/03 08:54:26;;;;;;;21.00;17.37;;;19.90;99.90;;;;;;6111807;23;20432;-76
2023/09/03 08:56:51;;;;;;;16.47;14.83;;;19.90;99.90;;;;;;6114185;23;20376;-75
2023/09/03 08:59:17;;;;;;;20.30;18.20;;;20.00;99.90;;;;;;6091000;23;20398;-74
2023/09/03 09:01:53;;;;;;;18.40;16.60;;;20.10;99.90;;;;;;6091146;23;20196;-73
2023/09/03 09:04:21;;;;;;;22.60;20.20;;;20.30;99.90;;;;;;6114727;23;20505;-74
2023/09/03 09:06:48;;;;;;;25.50;21.47;;;20.40;99.90;;;;;;6067193;23;20376;-76
2023/09/03 09:09:16;;;;;;;24.23;20.70;;;20.30;99.90;;;;;;6091127;23;20341;-75
2023/09/03 09:11:49;;;;;;;20.53;18.00;;;20.50;99.90;;;;;;6086647;23;20402;-74
2023/09/03 09:14:22;;;;;;;22.40;20.00;;;20.70;99.90;;;;;;6087591;23;20387;-76
2023/09/03 09:16:48;;;;;;;20.50;17.10;;;20.80;99.90;;;;;;6091050;23;20376;-76
2023/09/03 09:19:18;;;;;;;19.43;17.50;;;20.90;99.90;;;;;;6111631;23;20454;-75
2023/09/03 09:21:43;;;;;;;19.93;17.83;;;20.90;99.90;;;;;;6111828;23;20227;-73
2023/09/03 09:24:11;;;;;;;20.20;18.23;;;20.80;99.90;;;;;;6111576;23;20408;-76
2023/09/03 09:26:38;;;;;;;16.60;14.90;;;20.80;99.90;;;;;;6114218;23;20399;-74
2023/09/03 09:29:05;;;;;;;16.77;14.93;;;20.80;99.90;;;;;;6113188;23;20393;-74
2023/09/03 09:31:33;;;;;;;21.47;19.17;;;20.80;99.90;;;;;;6089222;23;20411;-76
2023/09/03 09:34:01;;;;;;;18.10;15.80;;;20.60;99.90;;;;;;6112760;23;20466;-73
2023/09/03 09:36:27;;;;;;;20.07;18.00;;;20.40;99.90;;;;;;6087834;23;20400;-75
2023/09/03 09:38:53;;;;;;;17.10;15.30;;;20.20;99.90;;;;;;6063806;23;20379;-73
2023/09/03 09:41:26;;;;;;;19.70;17.60;;;20.10;99.90;;;;;;6112740;23;20175;-74
2023/09/03 09:43:52;;;;;;;19.90;17.30;;;20.00;99.90;;;;;;6111075;23;20416;-74
2023/09/03 09:46:33;;;;;;;18.47;16.10;;;19.80;99.90;;;;;;6109886;23;20449;-73
2023/09/03 09:49:00;;;;;;;17.47;15.67;;;19.80;99.90;;;;;;6110814;23;20357;-77
2023/09/03 09:51:28;;;;;;;18.03;16.13;;;19.90;99.90;;;;;;6114818;23;20397;-79
2023/09/03 09:54:02;;;;;;;20.10;16.67;;;19.90;99.90;;;;;;6064925;23;20387;-75
2023/09/03 09:56:36;;;;;;;19.50;17.37;;;20.00;99.90;;;;;;6062605;23;20372;-80
2023/09/03 09:59:02;;;;;;;19.50;17.40;;;20.00;99.90;;;;;;6091712;23;20380;-75
2023/09/03 10:01:42;;;;;;;17.93;16.13;;;20.00;99.90;;;;;;6111654;23;20662;-74
2023/09/03 10:04:08;;;;;;;18.57;16.57;;;20.00;99.90;;;;;;6095313;23;20511;-78
2023/09/03 10:06:34;;;;;;;18.07;15.53;;;20.00;99.90;;;;;;6095584;23;20391;-75
2023/09/03 10:09:00;;;;;;;16.00;14.40;;;20.10;99.90;;;;;;6067113;23;20159;-77
2023/09/03 10:11:26;;;;;;;17.80;15.93;;;20.10;99.90;;;;;;6096461;23;20400;-78
2023/09/03 10:13:52;;;;;;;17.13;15.43;;;20.30;99.90;;;;;;6071010;23;20387;-78
2023/09/03 10:16:21;;;;;;;17.00;15.20;;;20.30;99.90;;;;;;6096274;23;20361;-77
2023/09/03 10:18:48;;;;;;;15.50;14.00;;;20.40;99.90;;;;;;6096141;23;20164;-79
2023/09/03 10:21:22;;;;;;;14.33;12.93;;;20.60;99.90;;;;;;6095398;23;20714;-73
2023/09/03 10:23:50;;;;;;;17.13;15.33;;;20.80;99.90;;;;;;6110652;23;20715;-74
2023/09/03 10:26:23;;;;;;;13.67;11.63;;;20.90;99.90;;;;;;6110963;23;20456;-75
2023/09/03 10:28:54;;;;;;;16.30;14.27;;;20.90;99.90;;;;;;6086649;23;20357;-73
2023/09/03 10:31:23;;;;;;;13.00;11.70;;;21.10;99.90;;;;;;6060909;23;20405;-75
2023/09/03 10:33:49;;;;;;;13.13;11.83;;;21.10;99.90;;;;;;6107468;23;20369;-75
2023/09/03 10:36:20;;;;;;;12.80;11.50;;;21.20;99.90;;;;;;6110077;23;20631;-76
2023/09/03 10:38:45;;;;;;;14.23;12.37;;;21.30;99.90;;;;;;6109317;23;20140;-75
2023/09/03 10:41:21;;;;;;;10.53;9.60;;;21.50;99.90;;;;;;6082903;23;20403;-74
2023/09/03 10:43:51;;;;;;;11.33;10.13;;;21.50;99.90;;;;;;6109150;23;20396;-73
2023/09/03 10:46:16;;;;;;;13.30;10.43;;;21.50;99.90;;;;;;6083522;23;20432;-73
2023/09/03 10:48:55;;;;;;;12.87;11.67;;;21.50;99.90;;;;;;6110238;23;20786;-74
2023/09/03 10:51:38;;;;;;;13.23;11.90;;;21.60;99.90;;;;;;6108805;23;20171;-73
2023/09/03 10:54:18;;;;;;;13.53;12.23;;;21.60;99.90;;;;;;6110749;23;20369;-73
2023/09/03 10:57:06;;;;;;;12.00;10.80;;;21.60;99.90;;;;;;6082736;23;20387;-73
2023/09/03 10:59:57;;;;;;;9.67;8.77;;;21.60;99.90;;;;;;6110994;23;20364;-74
2023/09/03 11:02:28;;;;;;;9.33;8.53;;;21.70;98.40;;;;;;6099659;23;20381;-75
2023/09/03 11:05:12;;;;;;;9.57;7.83;;;21.90;96.20;;;;;;6110161;23;20435;-75
2023/09/03 11:07:41;;;;;;;6.80;6.20;;;22.00;92.90;;;;;;6083300;23;20394;-72
2023/09/03 11:10:27;;;;;;;5.63;5.13;;;22.10;90.80;;;;;;6112425;23;20400;-74
2023/09/03 11:12:53;;;;;;;5.57;5.03;;;22.10;88.20;;;;;;6088694;23;20353;-75
2023/09/03 11:15:19;;;;;;;6.63;6.03;;;22.20;89.30;;;;;;6091838;23;20445;-77
2023/09/03 11:17:54;;;;;;;7.23;6.60;;;22.20;87.20;;;;;;6087899;23;20359;-77
2023/09/03 11:20:36;;;;;;;7.30;5.97;;;22.20;86.50;;;;;;6113173;23;20392;-75
2023/09/03 11:23:03;;;;;;;6.77;6.17;;;22.30;84.10;;;;;;6085489;23;20383;-75
2023/09/03 11:25:34;;;;;;;7.27;6.57;;;22.30;83.10;;;;;;6108936;23;20727;-74
2023/09/03 11:28:00;;;;;;;9.13;6.03;;;22.40;81.60;;;;;;6086375;23;20623;-75
2023/09/03 11:30:26;;;;;;;5.70;5.20;;;22.50;82.80;;;;;;6085657;23;20504;-74
2023/09/03 11:32:52;;;;;;;5.77;5.17;;;22.60;81.50;;;;;;6109212;23;20152;-74
2023/09/03 11:35:18;;;;;;;6.13;5.60;;;22.70;80.70;;;;;;6108911;23;20451;-75
2023/09/03 11:37:43;;;;;;;5.40;4.90;;;22.90;75.50;;;;;;6108372;23;20159;-76
2023/09/03 11:40:10;;;;;;;4.97;4.27;;;23.00;76.40;;;;;;6062705;23;20247;-76
2023/09/03 11:42:35;;;;;;;4.87;4.47;;;23.20;76.20;;;;;;6036086;23;20189;-75
2023/09/03 11:45:04;;;;;;;4.13;3.77;;;23.40;75.00;;;;;;6109006;23;20428;-75
2023/09/03 11:47:36;;;;;;;5.20;4.70;;;23.60;73.90;;;;;;6109414;23;20135;-74
2023/09/03 11:50:13;;;;;;;8.80;5.20;;;23.80;71.70;;;;;;6107611;23;20443;-73
2023/09/03 11:52:41;;;;;;;6.63;6.03;;;23.90;69.70;;;;;;6106915;23;20377;-74
2023/09/03 11:55:07;;;;;;;4.87;4.47;;;23.90;66.50;;;;;;6108013;23;20443;-75
2023/09/03 11:57:36;;;;;;;3.87;3.57;;;24.00;67.20;;;;;;6060320;23;20675;-74
2023/09/03 12:00:03;;;;;;;3.60;3.30;;;24.10;64.70;;;;;;6109140;23;20900;-75
2023/09/03 12:02:31;;;;;;;3.33;3.03;;;24.10;64.60;;;;;;6107588;23;20354;-75
2023/09/03 12:04:57;;;;;;;3.77;3.47;;;24.30;63.60;;;;;;6086956;23;20459;-78
2023/09/03 12:07:23;;;;;;;4.47;4.07;;;24.30;61.70;;;;;;6088599;23;20139;-77
2023/09/03 12:09:51;;;;;;;4.83;4.40;;;24.40;61.60;;;;;;6109616;23;20436;-77
2023/09/03 12:12:18;;;;;;;5.60;4.03;;;24.50;61.60;;;;;;6109526;23;20140;-74
2023/09/03 12:14:44;;;;;;;3.53;3.23;;;24.60;61.80;;;;;;6110682;23;20399;-77
2023/09/03 12:17:10;;;;;;;3.90;3.60;;;24.70;61.60;;;;;;6112879;23;20365;-78
2023/09/03 12:19:39;;;;;;;3.80;3.50;;;24.90;60.10;;;;;;6087592;23;20149;-74
2023/09/03 12:22:05;;;;;;;3.43;3.13;;;25.00;59.40;;;;;;6111123;23;20232;-74
2023/09/03 12:24:31;;;;;;;4.37;3.97;;;25.00;59.10;;;;;;6108792;23;20404;-74
2023/09/03 12:27:03;;;;;;;4.40;3.60;;;25.00;58.10;;;;;;6108995;23;20369;-76
2023/09/03 12:29:33;;;;;;;4.93;4.20;;;24.90;57.70;;;;;;6112159;23;20161;-77
2023/09/03 12:31:59;;;;;;;3.60;3.30;;;25.00;57.00;;;;;;6113680;23;20774;-73
2023/09/03 12:34:33;;;;;;;3.50;3.20;;;25.10;56.60;;;;;;6085181;23;20383;-75